sensor_id;sensor_type;location;lat;lon;timestamp;temperature;humidity
4451;DHT22;2238;50.180;9.230;2023-03-23T00:02:18;14.20;99.90
4451;DHT22;2238;50.180;9.230;2023-03-23T00:05:18;15.60;99.90
4451;DHT22;2238;50.180;9.230;2023-03-23T00:08:19;15.80;99.90
4451;DHT22;2238;50.180;9.230;2023-03-23T00:11:28;14.00;99.90
4451;DHT22;2238;50.180;9.230;2023-03-23T00:14:31;14.00;99.90
4451;DHT22;2238;50.180;9.230;2023-03-23T00:17:41;14.00;99.90
4451;DHT22;2238;50.180;9.230;2023-03-23T00:20:43;14.10;99.90
4451;DHT22;2238;50.180;9.230;2023-03-23T00:23:44;14.00;99.90
4451;DHT22;2238;50.180;9.230;2023-03-23T00:26:48;14.10;99.90
4451;DHT22;2238;50.180;9.230;2023-03-23T00:29:50;14.10;99.90
4451;DHT22;2238;50.180;9.230;2023-03-23T00:32:53;14.00;99.90
4451;DHT22;2238;50.180;9.230;2023-03-23T00:35:54;16.80;99.90
4451;DHT22;2238;50.180;9.230;2023-03-23T00:38:55;14.10;99.90
4451;DHT22;2238;50.180;9.230;2023-03-23T00:41:58;14.00;99.90
4451;DHT22;2238;50.180;9.230;2023-03-23T00:45:00;14.00;99.90
4451;DHT22;2238;50.180;9.230;2023-03-23T00:48:02;13.90;99.90
4451;DHT22;2238;50.180;9.230;2023-03-23T00:51:04;14.00;99.90
4451;DHT22;2238;50.180;9.230;2023-03-23T00:54:07;14.00;99.90
4451;DHT22;2238;50.180;9.230;2023-03-23T00:57:08;16.00;99.90
4451;DHT22;2238;50.180;9.230;2023-03-23T01:00:10;14.00;99.90
4451;DHT22;2238;50.180;9.230;2023-03-23T01:03:11;14.00;99.90
4451;DHT22;2238;50.180;9.230;2023-03-23T01:06:18;16.30;99.90
4451;DHT22;2238;50.180;9.230;2023-03-23T01:09:19;14.00;99.90
4451;DHT22;2238;50.180;9.230;2023-03-23T01:12:21;14.00;99.90
4451;DHT22;2238;50.180;9.230;2023-03-23T01:15:24;14.10;99.90
4451;DHT22;2238;50.180;9.230;2023-03-23T01:18:25;14.00;99.90
4451;DHT22;2238;50.180;9.230;2023-03-23T01:21:26;14.00;99.90
4451;DHT22;2238;50.180;9.230;2023-03-23T01:24:26;15.70;99.90
4451;DHT22;2238;50.180;9.230;2023-03-23T01:27:27;14.00;99.90
4451;DHT22;2238;50.180;9.230;2023-03-23T01:30:27;14.00;99.90
4451;DHT22;2238;50.180;9.230;2023-03-23T01:33:29;14.00;99.90
4451;DHT22;2238;50.180;9.230;2023-03-23T01:36:30;14.00;99.90
4451;DHT22;2238;50.180;9.230;2023-03-23T01:39:32;14.00;99.90
4451;DHT22;2238;50.180;9.230;2023-03-23T01:42:35;13.90;99.90
4451;DHT22;2238;50.180;9.230;2023-03-23T01:45:36;13.90;99.90
4451;DHT22;2238;50.180;9.230;2023-03-23T01:48:37;14.00;99.90
4451;DHT22;2238;50.180;9.230;2023-03-23T01:51:45;14.00;99.90
4451;DHT22;2238;50.180;9.230;2023-03-23T01:54:48;16.00;99.90
4451;DHT22;2238;50.180;9.230;2023-03-23T01:57:49;16.80;99.90
4451;DHT22;2238;50.180;9.230;2023-03-23T02:00:51;14.00;99.90
4451;DHT22;2238;50.180;9.230;2023-03-23T02:03:55;13.90;99.90
4451;DHT22;2238;50.180;9.230;2023-03-23T02:06:57;14.00;99.90
4451;DHT22;2238;50.180;9.230;2023-03-23T02:09:58;13.90;99.90
4451;DHT22;2238;50.180;9.230;2023-03-23T02:13:01;13.90;99.90
4451;DHT22;2238;50.180;9.230;2023-03-23T02:16:23;14.00;99.90
4451;DHT22;2238;50.180;9.230;2023-03-23T02:35:40;13.90;99.90
4451;DHT22;2238;50.180;9.230;2023-03-23T02:42:11;13.80;99.90
4451;DHT22;2238;50.180;9.230;2023-03-23T02:45:14;13.70;99.90
4451;DHT22;2238;50.180;9.230;2023-03-23T02:48:18;13.70;99.90
4451;DHT22;2238;50.180;9.230;2023-03-23T02:51:20;13.70;99.90
4451;DHT22;2238;50.180;9.230;2023-03-23T02:54:23;15.60;99.90
4451;DHT22;2238;50.180;9.230;2023-03-23T02:57:27;16.20;99.90
4451;DHT22;2238;50.180;9.230;2023-03-23T03:00:28;16.50;99.90
4451;DHT22;2238;50.180;9.230;2023-03-23T03:03:30;13.70;99.90
4451;DHT22;2238;50.180;9.230;2023-03-23T03:06:37;13.70;99.90
4451;DHT22;2238;50.180;9.230;2023-03-23T03:09:57;13.70;99.90
4451;DHT22;2238;50.180;9.230;2023-03-23T03:13:17;13.70;99.90
4451;DHT22;2238;50.180;9.230;2023-03-23T03:16:50;13.60;99.90
4451;DHT22;2238;50.180;9.230;2023-03-23T03:19:59;13.60;99.90
4451;DHT22;2238;50.180;9.230;2023-03-23T03:23:08;13.60;99.90
4451;DHT22;2238;50.180;9.230;2023-03-23T03:26:12;13.60;99.90
4451;DHT22;2238;50.180;9.230;2023-03-23T03:29:22;13.50;99.90
4451;DHT22;2238;50.180;9.230;2023-03-23T03:32:28;13.30;99.90
4451;DHT22;2238;50.180;9.230;2023-03-23T03:35:31;13.20;99.90
4451;DHT22;2238;50.180;9.230;2023-03-23T03:38:48;15.40;99.90
4451;DHT22;2238;50.180;9.230;2023-03-23T03:41:49;12.80;99.90
4451;DHT22;2238;50.180;9.230;2023-03-23T03:44:49;12.70;99.90
4451;DHT22;2238;50.180;9.230;2023-03-23T03:47:50;12.70;99.90
4451;DHT22;2238;50.180;9.230;2023-03-23T03:50:51;14.40;99.90
4451;DHT22;2238;50.180;9.230;2023-03-23T03:53:52;12.50;99.90
4451;DHT22;2238;50.180;9.230;2023-03-23T03:56:52;12.60;99.90
4451;DHT22;2238;50.180;9.230;2023-03-23T03:59:57;12.70;99.90
4451;DHT22;2238;50.180;9.230;2023-03-23T04:02:58;12.40;99.90
4451;DHT22;2238;50.180;9.230;2023-03-23T04:06:00;14.50;99.90
4451;DHT22;2238;50.180;9.230;2023-03-23T04:09:01;12.30;99.90
4451;DHT22;2238;50.180;9.230;2023-03-23T04:12:06;12.40;99.90
4451;DHT22;2238;50.180;9.230;2023-03-23T04:15:07;12.20;99.90
4451;DHT22;2238;50.180;9.230;2023-03-23T04:37:27;11.90;99.90
4451;DHT22;2238;50.180;9.230;2023-03-23T04:40:29;11.90;99.90
4451;DHT22;2238;50.180;9.230;2023-03-23T04:43:29;11.90;99.90
4451;DHT22;2238;50.180;9.230;2023-03-23T04:46:30;12.00;99.90
4451;DHT22;2238;50.180;9.230;2023-03-23T04:49:30;12.20;99.90
4451;DHT22;2238;50.180;9.230;2023-03-23T04:52:31;12.10;99.90
4451;DHT22;2238;50.180;9.230;2023-03-23T04:55:34;12.20;99.90
4451;DHT22;2238;50.180;9.230;2023-03-23T04:58:37;12.40;99.90
4451;DHT22;2238;50.180;9.230;2023-03-23T05:01:40;12.30;99.90
4451;DHT22;2238;50.180;9.230;2023-03-23T05:04:45;12.20;99.90
4451;DHT22;2238;50.180;9.230;2023-03-23T05:07:46;12.10;99.90
4451;DHT22;2238;50.180;9.230;2023-03-23T05:10:55;12.10;99.90
4451;DHT22;2238;50.180;9.230;2023-03-23T05:13:56;12.20;99.90
4451;DHT22;2238;50.180;9.230;2023-03-23T05:16:56;12.30;99.90
4451;DHT22;2238;50.180;9.230;2023-03-23T05:19:57;12.30;99.90
4451;DHT22;2238;50.180;9.230;2023-03-23T05:22:58;12.30;99.90
4451;DHT22;2238;50.180;9.230;2023-03-23T05:25:59;12.30;99.90
4451;DHT22;2238;50.180;9.230;2023-03-23T05:29:00;12.40;99.90
4451;DHT22;2238;50.180;9.230;2023-03-23T05:32:02;12.30;99.90
4451;DHT22;2238;50.180;9.230;2023-03-23T05:35:04;12.40;99.90
4451;DHT22;2238;50.180;9.230;2023-03-23T05:38:05;12.30;99.90
4451;DHT22;2238;50.180;9.230;2023-03-23T05:41:05;12.30;99.90
4451;DHT22;2238;50.180;9.230;2023-03-23T05:44:06;12.20;99.90
4451;DHT22;2238;50.180;9.230;2023-03-23T05:47:08;13.70;99.90
4451;DHT22;2238;50.180;9.230;2023-03-23T05:50:09;12.00;99.90
4451;DHT22;2238;50.180;9.230;2023-03-23T05:53:10;12.00;99.90
4451;DHT22;2238;50.180;9.230;2023-03-23T05:56:12;11.80;99.90
4451;DHT22;2238;50.180;9.230;2023-03-23T05:59:13;11.60;99.90
4451;DHT22;2238;50.180;9.230;2023-03-23T06:02:14;11.40;99.90
4451;DHT22;2238;50.180;9.230;2023-03-23T06:05:15;12.50;99.90
4451;DHT22;2238;50.180;9.230;2023-03-23T06:08:16;12.50;99.90
4451;DHT22;2238;50.180;9.230;2023-03-23T06:11:16;14.20;99.90
4451;DHT22;2238;50.180;9.230;2023-03-23T06:14:17;11.70;99.90
4451;DHT22;2238;50.180;9.230;2023-03-23T06:17:18;11.60;99.90
4451;DHT22;2238;50.180;9.230;2023-03-23T06:20:18;11.40;99.90
4451;DHT22;2238;50.180;9.230;2023-03-23T06:23:19;11.30;99.90
4451;DHT22;2238;50.180;9.230;2023-03-23T06:26:22;11.30;99.90
4451;DHT22;2238;50.180;9.230;2023-03-23T06:29:25;11.30;99.90
4451;DHT22;2238;50.180;9.230;2023-03-23T06:32:28;11.30;99.90
4451;DHT22;2238;50.180;9.230;2023-03-23T06:35:30;11.50;99.90
4451;DHT22;2238;50.180;9.230;2023-03-23T06:38:31;11.50;99.90
4451;DHT22;2238;50.180;9.230;2023-03-23T06:41:32;11.60;99.90
4451;DHT22;2238;50.180;9.230;2023-03-23T06:44:33;11.60;99.90
4451;DHT22;2238;50.180;9.230;2023-03-23T06:47:33;11.70;99.90
4451;DHT22;2238;50.180;9.230;2023-03-23T06:50:34;11.60;99.90
4451;DHT22;2238;50.180;9.230;2023-03-23T06:53:35;11.60;99.90
4451;DHT22;2238;50.180;9.230;2023-03-23T06:56:36;11.60;99.90
4451;DHT22;2238;50.180;9.230;2023-03-23T06:59:36;11.60;99.90
4451;DHT22;2238;50.180;9.230;2023-03-23T07:02:37;11.60;99.90
4451;DHT22;2238;50.180;9.230;2023-03-23T07:05:38;12.50;99.90
4451;DHT22;2238;50.180;9.230;2023-03-23T07:08:38;11.90;99.90
4451;DHT22;2238;50.180;9.230;2023-03-23T07:11:39;11.70;99.90
4451;DHT22;2238;50.180;9.230;2023-03-23T07:14:40;11.70;99.90
4451;DHT22;2238;50.180;9.230;2023-03-23T07:17:40;11.70;99.90
4451;DHT22;2238;50.180;9.230;2023-03-23T07:20:41;11.60;99.90
4451;DHT22;2238;50.180;9.230;2023-03-23T07:23:42;11.70;99.90
4451;DHT22;2238;50.180;9.230;2023-03-23T07:26:42;11.70;99.90
4451;DHT22;2238;50.180;9.230;2023-03-23T07:29:43;11.70;99.90
4451;DHT22;2238;50.180;9.230;2023-03-23T07:32:45;11.70;99.90
4451;DHT22;2238;50.180;9.230;2023-03-23T07:35:45;11.70;99.90
4451;DHT22;2238;50.180;9.230;2023-03-23T07:38:47;11.90;99.90
4451;DHT22;2238;50.180;9.230;2023-03-23T07:41:48;11.70;99.90
4451;DHT22;2238;50.180;9.230;2023-03-23T07:44:49;11.70;99.90
4451;DHT22;2238;50.180;9.230;2023-03-23T07:47:50;11.70;99.90
4451;DHT22;2238;50.180;9.230;2023-03-23T07:50:51;11.80;99.90
4451;DHT22;2238;50.180;9.230;2023-03-23T07:53:51;11.80;99.90
4451;DHT22;2238;50.180;9.230;2023-03-23T07:56:52;12.70;99.90
4451;DHT22;2238;50.180;9.230;2023-03-23T07:59:52;11.70;99.90
4451;DHT22;2238;50.180;9.230;2023-03-23T08:02:55;11.90;99.90
4451;DHT22;2238;50.180;9.230;2023-03-23T08:05:59;11.90;99.90
4451;DHT22;2238;50.180;9.230;2023-03-23T08:09:01;11.60;99.90
4451;DHT22;2238;50.180;9.230;2023-03-23T08:12:04;12.70;99.90
4451;DHT22;2238;50.180;9.230;2023-03-23T08:15:06;11.70;99.90
4451;DHT22;2238;50.180;9.230;2023-03-23T08:18:07;11.60;99.90
4451;DHT22;2238;50.180;9.230;2023-03-23T08:21:08;11.70;99.90
4451;DHT22;2238;50.180;9.230;2023-03-23T08:24:09;11.60;99.90
4451;DHT22;2238;50.180;9.230;2023-03-23T08:27:11;11.70;99.90
4451;DHT22;2238;50.180;9.230;2023-03-23T08:30:14;11.70;99.90
4451;DHT22;2238;50.180;9.230;2023-03-23T08:33:16;11.80;99.90
4451;DHT22;2238;50.180;9.230;2023-03-23T08:36:17;11.70;99.90
4451;DHT22;2238;50.180;9.230;2023-03-23T08:39:18;11.60;99.90
4451;DHT22;2238;50.180;9.230;2023-03-23T08:42:18;11.60;99.90
4451;DHT22;2238;50.180;9.230;2023-03-23T08:45:22;11.70;99.90
4451;DHT22;2238;50.180;9.230;2023-03-23T08:48:23;11.80;99.90
4451;DHT22;2238;50.180;9.230;2023-03-23T08:51:24;11.70;99.90
4451;DHT22;2238;50.180;9.230;2023-03-23T08:54:25;11.70;99.90
4451;DHT22;2238;50.180;9.230;2023-03-23T08:57:26;11.70;99.90
4451;DHT22;2238;50.180;9.230;2023-03-23T09:00:27;11.70;99.90
4451;DHT22;2238;50.180;9.230;2023-03-23T09:03:28;11.70;99.90
4451;DHT22;2238;50.180;9.230;2023-03-23T09:06:29;11.70;99.90
4451;DHT22;2238;50.180;9.230;2023-03-23T09:09:29;11.70;99.90
4451;DHT22;2238;50.180;9.230;2023-03-23T09:12:30;11.70;99.90
4451;DHT22;2238;50.180;9.230;2023-03-23T09:15:31;11.80;99.90
4451;DHT22;2238;50.180;9.230;2023-03-23T09:18:32;12.80;99.90
4451;DHT22;2238;50.180;9.230;2023-03-23T09:21:33;12.30;99.90
4451;DHT22;2238;50.180;9.230;2023-03-23T09:24:34;11.80;99.90
4451;DHT22;2238;50.180;9.230;2023-03-23T09:27:35;14.50;99.90
4451;DHT22;2238;50.180;9.230;2023-03-23T09:30:38;11.90;99.90
4451;DHT22;2238;50.180;9.230;2023-03-23T09:33:39;11.90;99.90
4451;DHT22;2238;50.180;9.230;2023-03-23T09:36:39;11.90;99.90
4451;DHT22;2238;50.180;9.230;2023-03-23T09:39:40;12.60;99.90
4451;DHT22;2238;50.180;9.230;2023-03-23T09:53:14;12.00;99.90
4451;DHT22;2238;50.180;9.230;2023-03-23T09:56:16;12.10;99.90
4451;DHT22;2238;50.180;9.230;2023-03-23T10:05:47;12.20;99.90
4451;DHT22;2238;50.180;9.230;2023-03-23T10:08:52;12.40;99.90
4451;DHT22;2238;50.180;9.230;2023-03-23T10:11:56;12.30;99.90
4451;DHT22;2238;50.180;9.230;2023-03-23T10:18:37;12.40;99.90
4451;DHT22;2238;50.180;9.230;2023-03-23T10:21:42;12.60;99.90
4451;DHT22;2238;50.180;9.230;2023-03-23T10:24:55;12.50;99.90
4451;DHT22;2238;50.180;9.230;2023-03-23T10:28:17;12.60;99.90
4451;DHT22;2238;50.180;9.230;2023-03-23T10:31:25;12.70;99.90
4451;DHT22;2238;50.180;9.230;2023-03-23T10:34:52;12.70;99.90
4451;DHT22;2238;50.180;9.230;2023-03-23T10:38:00;12.70;99.90
4451;DHT22;2238;50.180;9.230;2023-03-23T10:41:09;15.30;99.90
4451;DHT22;2238;50.180;9.230;2023-03-23T10:44:23;12.60;99.90
4451;DHT22;2238;50.180;9.230;2023-03-23T10:47:26;12.70;99.90
4451;DHT22;2238;50.180;9.230;2023-03-23T10:50:30;12.70;99.90
4451;DHT22;2238;50.180;9.230;2023-03-23T10:53:42;12.70;99.90
4451;DHT22;2238;50.180;9.230;2023-03-23T10:56:44;12.60;99.90
4451;DHT22;2238;50.180;9.230;2023-03-23T10:59:49;12.60;99.90
4451;DHT22;2238;50.180;9.230;2023-03-23T11:03:06;14.90;99.90
4451;DHT22;2238;50.180;9.230;2023-03-23T11:06:10;12.50;99.90
4451;DHT22;2238;50.180;9.230;2023-03-23T11:09:16;15.30;99.90
4451;DHT22;2238;50.180;9.230;2023-03-23T11:12:18;12.50;99.90
4451;DHT22;2238;50.180;9.230;2023-03-23T11:18:39;12.30;99.90
4451;DHT22;2238;50.180;9.230;2023-03-23T11:21:41;12.30;99.90
4451;DHT22;2238;50.180;9.230;2023-03-23T11:24:49;12.50;99.90
4451;DHT22;2238;50.180;9.230;2023-03-23T11:27:52;12.50;99.90
4451;DHT22;2238;50.180;9.230;2023-03-23T11:30:55;12.30;99.90
4451;DHT22;2238;50.180;9.230;2023-03-23T11:37:06;12.60;99.90
4451;DHT22;2238;50.180;9.230;2023-03-23T11:43:17;12.70;99.90
4451;DHT22;2238;50.180;9.230;2023-03-23T11:47:07;12.70;99.90
4451;DHT22;2238;50.180;9.230;2023-03-23T11:49:57;12.70;99.90
4451;DHT22;2238;50.180;9.230;2023-03-23T11:59:36;12.80;99.90
4451;DHT22;2238;50.180;9.230;2023-03-23T12:02:49;12.90;99.90
4451;DHT22;2238;50.180;9.230;2023-03-23T12:06:07;12.90;99.90
4451;DHT22;2238;50.180;9.230;2023-03-23T12:09:33;13.10;99.90
4451;DHT22;2238;50.180;9.230;2023-03-23T12:19:07;13.20;99.90
4451;DHT22;2238;50.180;9.230;2023-03-23T12:26:19;13.40;99.90
4451;DHT22;2238;50.180;9.230;2023-03-23T12:36:11;13.40;99.90
4451;DHT22;2238;50.180;9.230;2023-03-23T12:49:34;13.50;99.90
4451;DHT22;2238;50.180;9.230;2023-03-23T12:52:43;13.10;99.90
4451;DHT22;2238;50.180;9.230;2023-03-23T12:56:02;13.10;99.90
4451;DHT22;2238;50.180;9.230;2023-03-23T12:59:11;13.90;99.90
4451;DHT22;2238;50.180;9.230;2023-03-23T13:08:37;13.20;99.90
4451;DHT22;2238;50.180;9.230;2023-03-23T13:11:40;13.40;99.90
4451;DHT22;2238;50.180;9.230;2023-03-23T13:14:47;13.40;99.90
4451;DHT22;2238;50.180;9.230;2023-03-23T13:17:53;13.50;99.90
4451;DHT22;2238;50.180;9.230;2023-03-23T13:24:09;13.60;99.90
4451;DHT22;2238;50.180;9.230;2023-03-23T13:27:10;13.60;99.90
4451;DHT22;2238;50.180;9.230;2023-03-23T13:30:20;16.20;99.90
4451;DHT22;2238;50.180;9.230;2023-03-23T13:33:23;13.70;99.90
4451;DHT22;2238;50.180;9.230;2023-03-23T13:36:58;13.80;99.90
4451;DHT22;2238;50.180;9.230;2023-03-23T13:40:29;13.90;99.90
4451;DHT22;2238;50.180;9.230;2023-03-23T13:43:32;13.90;99.90
4451;DHT22;2238;50.180;9.230;2023-03-23T13:46:33;16.30;99.90
4451;DHT22;2238;50.180;9.230;2023-03-23T13:49:47;14.00;99.90
4451;DHT22;2238;50.180;9.230;2023-03-23T13:52:55;14.00;99.90
4451;DHT22;2238;50.180;9.230;2023-03-23T13:56:17;14.00;99.90
4451;DHT22;2238;50.180;9.230;2023-03-23T14:02:38;14.30;99.90
4451;DHT22;2238;50.180;9.230;2023-03-23T14:08:44;14.40;99.90
4451;DHT22;2238;50.180;9.230;2023-03-23T14:11:49;14.50;99.90
4451;DHT22;2238;50.180;9.230;2023-03-23T14:14:54;14.50;99.90
4451;DHT22;2238;50.180;9.230;2023-03-23T14:18:01;14.50;99.90
4451;DHT22;2238;50.180;9.230;2023-03-23T14:21:04;14.50;99.90
4451;DHT22;2238;50.180;9.230;2023-03-23T14:24:15;13.30;99.90
4451;DHT22;2238;50.180;9.230;2023-03-23T14:27:17;14.30;99.90
4451;DHT22;2238;50.180;9.230;2023-03-23T14:30:21;14.20;99.90
4451;DHT22;2238;50.180;9.230;2023-03-23T14:33:22;14.20;99.90
4451;DHT22;2238;50.180;9.230;2023-03-23T14:36:30;16.60;99.90
4451;DHT22;2238;50.180;9.230;2023-03-23T14:39:32;14.20;99.90
4451;DHT22;2238;50.180;9.230;2023-03-23T14:42:35;14.20;99.90
4451;DHT22;2238;50.180;9.230;2023-03-23T14:45:36;16.40;99.90
4451;DHT22;2238;50.180;9.230;2023-03-23T14:48:38;16.70;99.90
4451;DHT22;2238;50.180;9.230;2023-03-23T14:51:47;16.80;99.90
4451;DHT22;2238;50.180;9.230;2023-03-23T14:54:48;14.20;99.90
4451;DHT22;2238;50.180;9.230;2023-03-23T14:57:49;14.20;99.90
4451;DHT22;2238;50.180;9.230;2023-03-23T15:01:09;14.20;99.90
4451;DHT22;2238;50.180;9.230;2023-03-23T15:04:21;14.10;99.90
4451;DHT22;2238;50.180;9.230;2023-03-23T15:07:26;14.10;99.90
4451;DHT22;2238;50.180;9.230;2023-03-23T15:10:29;14.10;99.90
4451;DHT22;2238;50.180;9.230;2023-03-23T15:13:31;14.00;99.90
4451;DHT22;2238;50.180;9.230;2023-03-23T15:16:32;13.90;99.90
4451;DHT22;2238;50.180;9.230;2023-03-23T15:19:40;13.90;99.90
4451;DHT22;2238;50.180;9.230;2023-03-23T15:22:46;15.50;99.90
4451;DHT22;2238;50.180;9.230;2023-03-23T15:25:52;13.90;99.90
4451;DHT22;2238;50.180;9.230;2023-03-23T15:29:15;13.90;99.90
4451;DHT22;2238;50.180;9.230;2023-03-23T15:32:30;14.00;99.90
4451;DHT22;2238;50.180;9.230;2023-03-23T15:35:37;14.10;99.90
4451;DHT22;2238;50.180;9.230;2023-03-23T15:38:38;15.90;99.90
4451;DHT22;2238;50.180;9.230;2023-03-23T15:41:48;14.00;99.90
4451;DHT22;2238;50.180;9.230;2023-03-23T15:45:15;14.00;99.90
4451;DHT22;2238;50.180;9.230;2023-03-23T15:48:16;14.00;99.90
4451;DHT22;2238;50.180;9.230;2023-03-23T15:51:18;16.60;99.90
4451;DHT22;2238;50.180;9.230;2023-03-23T15:54:19;13.90;99.90
4451;DHT22;2238;50.180;9.230;2023-03-23T15:57:20;13.90;99.90
4451;DHT22;2238;50.180;9.230;2023-03-23T16:00:22;13.80;99.90
4451;DHT22;2238;50.180;9.230;2023-03-23T16:03:26;13.90;99.90
4451;DHT22;2238;50.180;9.230;2023-03-23T16:06:30;13.90;99.90
4451;DHT22;2238;50.180;9.230;2023-03-23T16:09:32;15.00;99.90
4451;DHT22;2238;50.180;9.230;2023-03-23T16:12:32;15.90;99.90
4451;DHT22;2238;50.180;9.230;2023-03-23T16:15:33;13.80;99.90
4451;DHT22;2238;50.180;9.230;2023-03-23T16:18:34;13.80;99.90
4451;DHT22;2238;50.180;9.230;2023-03-23T16:21:34;14.00;99.90
4451;DHT22;2238;50.180;9.230;2023-03-23T16:24:35;13.70;99.90
4451;DHT22;2238;50.180;9.230;2023-03-23T16:27:36;13.90;99.90
4451;DHT22;2238;50.180;9.230;2023-03-23T16:30:38;16.00;99.90
4451;DHT22;2238;50.180;9.230;2023-03-23T16:33:38;13.60;99.90
4451;DHT22;2238;50.180;9.230;2023-03-23T16:36:39;13.60;99.90
4451;DHT22;2238;50.180;9.230;2023-03-23T16:39:40;16.40;99.90
4451;DHT22;2238;50.180;9.230;2023-03-23T16:42:40;13.70;99.90
4451;DHT22;2238;50.180;9.230;2023-03-23T16:45:43;13.60;99.90
4451;DHT22;2238;50.180;9.230;2023-03-23T16:48:44;13.50;99.90
4451;DHT22;2238;50.180;9.230;2023-03-23T16:51:44;13.70;99.90
4451;DHT22;2238;50.180;9.230;2023-03-23T16:54:46;16.30;99.90
4451;DHT22;2238;50.180;9.230;2023-03-23T16:57:47;14.00;99.90
4451;DHT22;2238;50.180;9.230;2023-03-23T17:00:50;13.40;99.90
4451;DHT22;2238;50.180;9.230;2023-03-23T17:03:50;16.00;99.90
4451;DHT22;2238;50.180;9.230;2023-03-23T17:06:51;13.30;99.90
4451;DHT22;2238;50.180;9.230;2023-03-23T17:09:52;13.80;99.90
4451;DHT22;2238;50.180;9.230;2023-03-23T17:12:54;13.20;99.90
4451;DHT22;2238;50.180;9.230;2023-03-23T17:15:55;15.90;99.90
4451;DHT22;2238;50.180;9.230;2023-03-23T17:18:56;13.20;99.90
4451;DHT22;2238;50.180;9.230;2023-03-23T17:21:57;15.90;99.90
4451;DHT22;2238;50.180;9.230;2023-03-23T17:24:57;13.20;99.90
4451;DHT22;2238;50.180;9.230;2023-03-23T17:27:58;14.20;99.90
4451;DHT22;2238;50.180;9.230;2023-03-23T17:30:59;13.20;99.90
4451;DHT22;2238;50.180;9.230;2023-03-23T17:33:59;13.40;99.90
4451;DHT22;2238;50.180;9.230;2023-03-23T17:37:01;13.20;99.90
4451;DHT22;2238;50.180;9.230;2023-03-23T17:40:02;15.10;99.90
4451;DHT22;2238;50.180;9.230;2023-03-23T17:43:04;15.90;99.90
4451;DHT22;2238;50.180;9.230;2023-03-23T17:46:05;13.00;99.90
4451;DHT22;2238;50.180;9.230;2023-03-23T17:49:06;13.00;99.90
4451;DHT22;2238;50.180;9.230;2023-03-23T17:52:06;13.00;99.90
4451;DHT22;2238;50.180;9.230;2023-03-23T17:55:07;13.50;99.90
4451;DHT22;2238;50.180;9.230;2023-03-23T17:58:08;13.00;99.90
4451;DHT22;2238;50.180;9.230;2023-03-23T18:01:09;13.80;99.90
4451;DHT22;2238;50.180;9.230;2023-03-23T18:04:10;15.00;99.90
4451;DHT22;2238;50.180;9.230;2023-03-23T18:07:11;12.90;99.90
4451;DHT22;2238;50.180;9.230;2023-03-23T18:10:12;12.80;99.90
4451;DHT22;2238;50.180;9.230;2023-03-23T18:13:13;12.90;99.90
4451;DHT22;2238;50.180;9.230;2023-03-23T18:16:14;12.80;99.90
4451;DHT22;2238;50.180;9.230;2023-03-23T18:19:15;12.90;99.90
4451;DHT22;2238;50.180;9.230;2023-03-23T18:22:15;15.00;99.90
4451;DHT22;2238;50.180;9.230;2023-03-23T18:25:16;13.70;99.90
4451;DHT22;2238;50.180;9.230;2023-03-23T18:28:17;12.70;99.90
4451;DHT22;2238;50.180;9.230;2023-03-23T18:31:19;15.20;99.90
4451;DHT22;2238;50.180;9.230;2023-03-23T18:34:20;13.40;99.90
4451;DHT22;2238;50.180;9.230;2023-03-23T18:37:20;12.80;99.90
4451;DHT22;2238;50.180;9.230;2023-03-23T18:40:21;12.90;99.90
4451;DHT22;2238;50.180;9.230;2023-03-23T18:43:22;12.80;99.90
4451;DHT22;2238;50.180;9.230;2023-03-23T18:46:22;13.30;99.90
4451;DHT22;2238;50.180;9.230;2023-03-23T18:49:23;12.70;99.90
4451;DHT22;2238;50.180;9.230;2023-03-23T18:52:24;12.70;99.90
4451;DHT22;2238;50.180;9.230;2023-03-23T18:55:25;12.80;99.90
4451;DHT22;2238;50.180;9.230;2023-03-23T18:58:26;12.60;99.90
4451;DHT22;2238;50.180;9.230;2023-03-23T19:01:27;13.00;99.90
4451;DHT22;2238;50.180;9.230;2023-03-23T19:04:28;12.60;99.90
4451;DHT22;2238;50.180;9.230;2023-03-23T19:07:30;13.00;99.90
4451;DHT22;2238;50.180;9.230;2023-03-23T19:10:34;14.00;99.90
4451;DHT22;2238;50.180;9.230;2023-03-23T19:13:35;12.20;99.90
4451;DHT22;2238;50.180;9.230;2023-03-23T19:16:36;12.70;99.90
4451;DHT22;2238;50.180;9.230;2023-03-23T19:19:37;12.80;99.90
4451;DHT22;2238;50.180;9.230;2023-03-23T19:22:40;12.70;99.90
4451;DHT22;2238;50.180;9.230;2023-03-23T19:25:41;15.40;99.90
4451;DHT22;2238;50.180;9.230;2023-03-23T19:28:42;15.60;99.90
4451;DHT22;2238;50.180;9.230;2023-03-23T19:31:42;12.70;99.90
4451;DHT22;2238;50.180;9.230;2023-03-23T19:34:43;15.60;99.90
4451;DHT22;2238;50.180;9.230;2023-03-23T19:37:44;12.70;99.90
4451;DHT22;2238;50.180;9.230;2023-03-23T19:40:54;12.80;99.90
4451;DHT22;2238;50.180;9.230;2023-03-23T19:43:56;12.90;99.90
4451;DHT22;2238;50.180;9.230;2023-03-23T19:46:57;14.10;99.90
4451;DHT22;2238;50.180;9.230;2023-03-23T19:49:58;12.90;99.90
4451;DHT22;2238;50.180;9.230;2023-03-23T19:53:00;13.00;99.90
4451;DHT22;2238;50.180;9.230;2023-03-23T19:56:01;15.20;99.90
4451;DHT22;2238;50.180;9.230;2023-03-23T19:59:02;15.90;99.90
4451;DHT22;2238;50.180;9.230;2023-03-23T20:02:02;13.00;99.90
4451;DHT22;2238;50.180;9.230;2023-03-23T20:05:03;12.80;99.90
4451;DHT22;2238;50.180;9.230;2023-03-23T20:08:04;12.80;99.90
4451;DHT22;2238;50.180;9.230;2023-03-23T20:11:07;13.30;99.90
4451;DHT22;2238;50.180;9.230;2023-03-23T20:14:08;12.60;99.90
4451;DHT22;2238;50.180;9.230;2023-03-23T20:17:09;13.50;99.90
4451;DHT22;2238;50.180;9.230;2023-03-23T20:20:10;12.70;99.90
4451;DHT22;2238;50.180;9.230;2023-03-23T20:23:11;12.50;99.90
4451;DHT22;2238;50.180;9.230;2023-03-23T20:26:16;12.10;99.90
4451;DHT22;2238;50.180;9.230;2023-03-23T20:29:17;15.20;99.90
4451;DHT22;2238;50.180;9.230;2023-03-23T20:32:18;12.40;99.90
4451;DHT22;2238;50.180;9.230;2023-03-23T20:35:18;12.60;99.90
4451;DHT22;2238;50.180;9.230;2023-03-23T20:38:21;12.60;99.90
4451;DHT22;2238;50.180;9.230;2023-03-23T20:41:23;12.70;99.90
4451;DHT22;2238;50.180;9.230;2023-03-23T20:44:25;12.70;99.90
4451;DHT22;2238;50.180;9.230;2023-03-23T20:47:28;12.90;99.90
4451;DHT22;2238;50.180;9.230;2023-03-23T20:50:31;12.60;99.90
4451;DHT22;2238;50.180;9.230;2023-03-23T20:53:33;15.00;99.90
4451;DHT22;2238;50.180;9.230;2023-03-23T20:56:34;13.40;99.90
4451;DHT22;2238;50.180;9.230;2023-03-23T20:59:35;13.10;99.90
4451;DHT22;2238;50.180;9.230;2023-03-23T21:02:36;13.40;99.90
4451;DHT22;2238;50.180;9.230;2023-03-23T21:05:39;14.90;99.90
4451;DHT22;2238;50.180;9.230;2023-03-23T21:08:40;14.90;99.90
4451;DHT22;2238;50.180;9.230;2023-03-23T21:11:42;12.30;99.90
4451;DHT22;2238;50.180;9.230;2023-03-23T21:14:42;12.50;99.90
4451;DHT22;2238;50.180;9.230;2023-03-23T21:17:44;14.40;99.90
4451;DHT22;2238;50.180;9.230;2023-03-23T21:20:45;14.30;99.90
4451;DHT22;2238;50.180;9.230;2023-03-23T21:23:46;13.60;99.90
4451;DHT22;2238;50.180;9.230;2023-03-23T21:26:53;13.70;99.90
4451;DHT22;2238;50.180;9.230;2023-03-23T21:29:58;15.30;99.90
4451;DHT22;2238;50.180;9.230;2023-03-23T21:32:59;15.30;99.90
4451;DHT22;2238;50.180;9.230;2023-03-23T21:36:00;12.90;99.90
4451;DHT22;2238;50.180;9.230;2023-03-23T21:39:00;15.70;99.90
4451;DHT22;2238;50.180;9.230;2023-03-23T21:42:01;13.10;99.90
4451;DHT22;2238;50.180;9.230;2023-03-23T21:45:04;13.30;99.90
4451;DHT22;2238;50.180;9.230;2023-03-23T21:48:05;13.40;99.90
4451;DHT22;2238;50.180;9.230;2023-03-23T21:51:12;13.30;99.90
4451;DHT22;2238;50.180;9.230;2023-03-23T21:54:13;15.60;99.90
4451;DHT22;2238;50.180;9.230;2023-03-23T21:57:14;16.20;99.90